sensor_id;sensor_type;location;lat;lon;timestamp;P1;durP1;ratioP1;P2;durP2;ratioP2
40591;SDS011;26301;42.832;23.918;2023-02-28T00:00:49;34.78;;;21.92;;
40591;SDS011;26301;42.832;23.918;2023-02-28T00:03:14;31.35;;;20.45;;
40591;SDS011;26301;42.832;23.918;2023-02-28T00:05:40;28.13;;;18.45;;
40591;SDS011;26301;42.832;23.918;2023-02-28T00:08:06;29.13;;;19.40;;
40591;SDS011;26301;42.832;23.918;2023-02-28T00:10:33;26.77;;;19.08;;
40591;SDS011;26301;42.832;23.918;2023-02-28T00:13:03;28.90;;;19.70;;
40591;SDS011;26301;42.832;23.918;2023-02-28T00:15:30;30.52;;;19.55;;
40591;SDS011;26301;42.832;23.918;2023-02-28T00:17:55;26.75;;;17.40;;
40591;SDS011;26301;42.832;23.918;2023-02-28T00:20:22;26.65;;;17.67;;
40591;SDS011;26301;42.832;23.918;2023-02-28T00:22:49;28.92;;;19.00;;
40591;SDS011;26301;42.832;23.918;2023-02-28T00:25:17;94.15;;;23.58;;
40591;SDS011;26301;42.832;23.918;2023-02-28T00:27:44;43.55;;;24.80;;
40591;SDS011;26301;42.832;23.918;2023-02-28T00:30:11;341.50;;;30.92;;
40591;SDS011;26301;42.832;23.918;2023-02-28T00:32:45;137.35;;;27.35;;
40591;SDS011;26301;42.832;23.918;2023-02-28T00:35:11;159.75;;;27.60;;
40591;SDS011;26301;42.832;23.918;2023-02-28T00:37:37;70.18;;;23.20;;
40591;SDS011;26301;42.832;23.918;2023-02-28T00:40:03;66.63;;;21.52;;
40591;SDS011;26301;42.832;23.918;2023-02-28T00:42:31;28.92;;;19.33;;
40591;SDS011;26301;42.832;23.918;2023-02-28T00:44:57;47.28;;;21.45;;
40591;SDS011;26301;42.832;23.918;2023-02-28T00:47:22;202.15;;;26.05;;
40591;SDS011;26301;42.832;23.918;2023-02-28T00:49:48;48.55;;;23.42;;
40591;SDS011;26301;42.832;23.918;2023-02-28T00:52:13;45.63;;;22.60;;
40591;SDS011;26301;42.832;23.918;2023-02-28T00:54:39;40.75;;;22.20;;
40591;SDS011;26301;42.832;23.918;2023-02-28T00:57:05;36.75;;;21.77;;
40591;SDS011;26301;42.832;23.918;2023-02-28T00:59:30;36.35;;;21.58;;
40591;SDS011;26301;42.832;23.918;2023-02-28T01:01:56;42.63;;;22.02;;
40591;SDS011;26301;42.832;23.918;2023-02-28T01:04:21;36.03;;;21.77;;
40591;SDS011;26301;42.832;23.918;2023-02-28T01:06:47;35.58;;;21.92;;
40591;SDS011;26301;42.832;23.918;2023-02-28T01:09:13;29.42;;;20.00;;
40591;SDS011;26301;42.832;23.918;2023-02-28T01:11:38;35.67;;;21.92;;
40591;SDS011;26301;42.832;23.918;2023-02-28T01:14:06;37.22;;;23.05;;
40591;SDS011;26301;42.832;23.918;2023-02-28T01:16:33;37.85;;;23.60;;
40591;SDS011;26301;42.832;23.918;2023-02-28T01:18:59;32.88;;;21.08;;
40591;SDS011;26301;42.832;23.918;2023-02-28T01:21:24;34.83;;;21.63;;
40591;SDS011;26301;42.832;23.918;2023-02-28T01:23:50;31.85;;;20.23;;
40591;SDS011;26301;42.832;23.918;2023-02-28T01:26:17;31.83;;;19.02;;
40591;SDS011;26301;42.832;23.918;2023-02-28T01:28:44;31.30;;;18.50;;
40591;SDS011;26301;42.832;23.918;2023-02-28T01:31:10;27.85;;;17.67;;
40591;SDS011;26301;42.832;23.918;2023-02-28T01:33:37;29.65;;;18.90;;
40591;SDS011;26301;42.832;23.918;2023-02-28T01:36:13;26.67;;;17.25;;
40591;SDS011;26301;42.832;23.918;2023-02-28T01:38:41;26.10;;;17.48;;
40591;SDS011;26301;42.832;23.918;2023-02-28T01:41:07;26.17;;;16.27;;
40591;SDS011;26301;42.832;23.918;2023-02-28T01:46:07;25.92;;;16.15;;
40591;SDS011;26301;42.832;23.918;2023-02-28T01:48:38;26.90;;;17.23;;
40591;SDS011;26301;42.832;23.918;2023-02-28T01:51:11;30.70;;;17.00;;
40591;SDS011;26301;42.832;23.918;2023-02-28T01:53:50;86.78;;;17.90;;
40591;SDS011;26301;42.832;23.918;2023-02-28T01:56:20;95.10;;;18.17;;
40591;SDS011;26301;42.832;23.918;2023-02-28T01:58:49;82.15;;;18.23;;
40591;SDS011;26301;42.832;23.918;2023-02-28T02:01:17;33.90;;;16.45;;
40591;SDS011;26301;42.832;23.918;2023-02-28T02:03:49;85.15;;;17.65;;
40591;SDS011;26301;42.832;23.918;2023-02-28T02:06:20;154.25;;;18.23;;
40591;SDS011;26301;42.832;23.918;2023-02-28T02:08:48;106.18;;;17.15;;
40591;SDS011;26301;42.832;23.918;2023-02-28T02:11:14;130.18;;;18.83;;
40591;SDS011;26301;42.832;23.918;2023-02-28T02:22:08;53.45;;;18.35;;
40591;SDS011;26301;42.832;23.918;2023-02-28T02:36:27;49.08;;;17.20;;
40591;SDS011;26301;42.832;23.918;2023-02-28T02:41:47;34.38;;;18.10;;
40591;SDS011;26301;42.832;23.918;2023-02-28T02:44:24;32.30;;;16.98;;
40591;SDS011;26301;42.832;23.918;2023-02-28T02:47:27;34.05;;;17.45;;
40591;SDS011;26301;42.832;23.918;2023-02-28T02:49:56;32.92;;;16.25;;
40591;SDS011;26301;42.832;23.918;2023-02-28T02:52:29;27.08;;;16.67;;
40591;SDS011;26301;42.832;23.918;2023-02-28T02:55:05;30.90;;;16.73;;
40591;SDS011;26301;42.832;23.918;2023-02-28T03:00:05;40.45;;;18.88;;
40591;SDS011;26301;42.832;23.918;2023-02-28T03:02:35;29.13;;;16.33;;
40591;SDS011;26301;42.832;23.918;2023-02-28T03:05:04;27.38;;;16.15;;
40591;SDS011;26301;42.832;23.918;2023-02-28T03:07:38;30.83;;;16.60;;
40591;SDS011;26301;42.832;23.918;2023-02-28T03:10:25;31.33;;;18.05;;
40591;SDS011;26301;42.832;23.918;2023-02-28T03:18:45;29.75;;;16.35;;
40591;SDS011;26301;42.832;23.918;2023-02-28T03:21:28;29.77;;;17.70;;
40591;SDS011;26301;42.832;23.918;2023-02-28T03:24:24;34.65;;;17.30;;
40591;SDS011;26301;42.832;23.918;2023-02-28T03:27:02;50.75;;;16.77;;
40591;SDS011;26301;42.832;23.918;2023-02-28T03:31:59;32.58;;;17.63;;
40591;SDS011;26301;42.832;23.918;2023-02-28T03:34:36;33.03;;;18.15;;
40591;SDS011;26301;42.832;23.918;2023-02-28T03:37:12;38.10;;;17.80;;
40591;SDS011;26301;42.832;23.918;2023-02-28T03:39:47;44.30;;;17.63;;
40591;SDS011;26301;42.832;23.918;2023-02-28T03:42:19;30.35;;;18.73;;
40591;SDS011;26301;42.832;23.918;2023-02-28T03:47:21;55.95;;;19.10;;
40591;SDS011;26301;42.832;23.918;2023-02-28T03:50:02;265.77;;;21.27;;
40591;SDS011;26301;42.832;23.918;2023-02-28T03:52:33;266.58;;;21.20;;
40591;SDS011;26301;42.832;23.918;2023-02-28T03:55:02;402.90;;;27.08;;
40591;SDS011;26301;42.832;23.918;2023-02-28T04:01:09;537.40;;;24.17;;
40591;SDS011;26301;42.832;23.918;2023-02-28T04:03:17;442.38;;;38.45;;
40591;SDS011;26301;42.832;23.918;2023-02-28T04:06:01;501.90;;;77.15;;
40591;SDS011;26301;42.832;23.918;2023-02-28T04:08:27;725.20;;;155.63;;
40591;SDS011;26301;42.832;23.918;2023-02-28T04:10:55;697.08;;;107.78;;
40591;SDS011;26301;42.832;23.918;2023-02-28T04:13:42;599.25;;;38.15;;
40591;SDS011;26301;42.832;23.918;2023-02-28T04:16:08;700.75;;;37.13;;
40591;SDS011;26301;42.832;23.918;2023-02-28T04:18:40;350.50;;;27.30;;
40591;SDS011;26301;42.832;23.918;2023-02-28T04:21:08;425.08;;;28.08;;
40591;SDS011;26301;42.832;23.918;2023-02-28T04:23:35;383.23;;;28.50;;
40591;SDS011;26301;42.832;23.918;2023-02-28T04:26:01;176.50;;;23.17;;
40591;SDS011;26301;42.832;23.918;2023-02-28T04:28:26;473.00;;;29.58;;
40591;SDS011;26301;42.832;23.918;2023-02-28T04:30:58;79.13;;;21.85;;
40591;SDS011;26301;42.832;23.918;2023-02-28T04:33:26;67.30;;;16.67;;
40591;SDS011;26301;42.832;23.918;2023-02-28T04:36:02;20.63;;;12.15;;
40591;SDS011;26301;42.832;23.918;2023-02-28T04:38:33;44.65;;;24.95;;
40591;SDS011;26301;42.832;23.918;2023-02-28T04:41:00;36.45;;;17.02;;
40591;SDS011;26301;42.832;23.918;2023-02-28T04:43:29;20.90;;;11.48;;
40591;SDS011;26301;42.832;23.918;2023-02-28T04:45:56;22.85;;;11.75;;
40591;SDS011;26301;42.832;23.918;2023-02-28T04:48:23;31.55;;;13.15;;
40591;SDS011;26301;42.832;23.918;2023-02-28T04:50:50;22.02;;;11.85;;
40591;SDS011;26301;42.832;23.918;2023-02-28T04:53:15;21.33;;;11.65;;
40591;SDS011;26301;42.832;23.918;2023-02-28T04:55:41;32.40;;;12.80;;
40591;SDS011;26301;42.832;23.918;2023-02-28T04:58:07;26.77;;;13.25;;
40591;SDS011;26301;42.832;23.918;2023-02-28T05:00:32;29.58;;;13.35;;
40591;SDS011;26301;42.832;23.918;2023-02-28T05:02:58;30.00;;;13.25;;
40591;SDS011;26301;42.832;23.918;2023-02-28T05:05:23;27.63;;;13.98;;
40591;SDS011;26301;42.832;23.918;2023-02-28T05:07:49;27.05;;;12.45;;
40591;SDS011;26301;42.832;23.918;2023-02-28T05:10:15;65.07;;;16.05;;
40591;SDS011;26301;42.832;23.918;2023-02-28T05:12:41;52.28;;;14.32;;
40591;SDS011;26301;42.832;23.918;2023-02-28T05:15:07;47.85;;;14.25;;
40591;SDS011;26301;42.832;23.918;2023-02-28T05:17:37;38.95;;;14.88;;
40591;SDS011;26301;42.832;23.918;2023-02-28T05:20:03;45.85;;;15.25;;
40591;SDS011;26301;42.832;23.918;2023-02-28T05:22:29;42.20;;;15.18;;
40591;SDS011;26301;42.832;23.918;2023-02-28T05:24:55;25.58;;;13.48;;
40591;SDS011;26301;42.832;23.918;2023-02-28T05:27:21;26.00;;;13.70;;
40591;SDS011;26301;42.832;23.918;2023-02-28T05:29:46;25.17;;;12.50;;
40591;SDS011;26301;42.832;23.918;2023-02-28T05:32:12;23.60;;;11.80;;
40591;SDS011;26301;42.832;23.918;2023-02-28T05:34:38;23.35;;;11.73;;
40591;SDS011;26301;42.832;23.918;2023-02-28T05:37:05;27.88;;;12.88;;
40591;SDS011;26301;42.832;23.918;2023-02-28T05:39:32;31.67;;;13.55;;
40591;SDS011;26301;42.832;23.918;2023-02-28T05:41:58;31.25;;;14.73;;
40591;SDS011;26301;42.832;23.918;2023-02-28T05:44:24;41.58;;;12.38;;
40591;SDS011;26301;42.832;23.918;2023-02-28T05:46:49;27.73;;;13.27;;
40591;SDS011;26301;42.832;23.918;2023-02-28T05:49:15;48.10;;;15.40;;
40591;SDS011;26301;42.832;23.918;2023-02-28T05:51:41;33.00;;;15.27;;
40591;SDS011;26301;42.832;23.918;2023-02-28T05:54:06;21.20;;;12.27;;
40591;SDS011;26301;42.832;23.918;2023-02-28T05:56:32;28.75;;;14.20;;
40591;SDS011;26301;42.832;23.918;2023-02-28T05:59:01;26.25;;;14.23;;
40591;SDS011;26301;42.832;23.918;2023-02-28T06:01:34;41.40;;;14.60;;
40591;SDS011;26301;42.832;23.918;2023-02-28T06:04:02;46.03;;;12.65;;
40591;SDS011;26301;42.832;23.918;2023-02-28T06:06:29;54.72;;;13.90;;
40591;SDS011;26301;42.832;23.918;2023-02-28T06:08:55;28.42;;;14.23;;
40591;SDS011;26301;42.832;23.918;2023-02-28T06:11:22;61.38;;;16.10;;
40591;SDS011;26301;42.832;23.918;2023-02-28T06:13:53;13.73;;;7.28;;
40591;SDS011;26301;42.832;23.918;2023-02-28T06:16:20;8.55;;;5.60;;
40591;SDS011;26301;42.832;23.918;2023-02-28T06:18:46;11.40;;;6.35;;
40591;SDS011;26301;42.832;23.918;2023-02-28T06:21:12;11.25;;;5.32;;
40591;SDS011;26301;42.832;23.918;2023-02-28T06:23:38;10.68;;;5.97;;
40591;SDS011;26301;42.832;23.918;2023-02-28T06:26:04;9.80;;;5.45;;
40591;SDS011;26301;42.832;23.918;2023-02-28T06:28:30;14.13;;;5.88;;
40591;SDS011;26301;42.832;23.918;2023-02-28T06:30:56;20.00;;;12.60;;
40591;SDS011;26301;42.832;23.918;2023-02-28T06:33:22;23.95;;;11.18;;
40591;SDS011;26301;42.832;23.918;2023-02-28T06:35:51;86.63;;;14.35;;
40591;SDS011;26301;42.832;23.918;2023-02-28T06:38:17;48.83;;;22.15;;
40591;SDS011;26301;42.832;23.918;2023-02-28T06:40:43;27.80;;;12.23;;
40591;SDS011;26301;42.832;23.918;2023-02-28T06:43:09;87.15;;;14.45;;
40591;SDS011;26301;42.832;23.918;2023-02-28T06:45:42;44.47;;;14.68;;
40591;SDS011;26301;42.832;23.918;2023-02-28T06:48:08;36.50;;;12.50;;
40591;SDS011;26301;42.832;23.918;2023-02-28T06:50:35;39.90;;;13.13;;
40591;SDS011;26301;42.832;23.918;2023-02-28T06:53:01;42.05;;;12.52;;
40591;SDS011;26301;42.832;23.918;2023-02-28T06:55:26;30.17;;;11.93;;
40591;SDS011;26301;42.832;23.918;2023-02-28T06:57:51;27.77;;;12.30;;
40591;SDS011;26301;42.832;23.918;2023-02-28T07:00:17;34.10;;;12.13;;
40591;SDS011;26301;42.832;23.918;2023-02-28T07:02:43;34.95;;;12.18;;
40591;SDS011;26301;42.832;23.918;2023-02-28T07:05:09;24.83;;;11.68;;
40591;SDS011;26301;42.832;23.918;2023-02-28T07:07:35;41.97;;;12.98;;
40591;SDS011;26301;42.832;23.918;2023-02-28T07:10:03;34.85;;;12.10;;
40591;SDS011;26301;42.832;23.918;2023-02-28T07:12:29;28.58;;;11.80;;
40591;SDS011;26301;42.832;23.918;2023-02-28T07:14:55;24.05;;;12.88;;
40591;SDS011;26301;42.832;23.918;2023-02-28T07:17:20;20.90;;;11.35;;
40591;SDS011;26301;42.832;23.918;2023-02-28T07:19:46;28.35;;;12.60;;
40591;SDS011;26301;42.832;23.918;2023-02-28T07:22:12;27.48;;;12.60;;
40591;SDS011;26301;42.832;23.918;2023-02-28T07:24:37;31.20;;;12.13;;
40591;SDS011;26301;42.832;23.918;2023-02-28T07:27:03;33.38;;;11.32;;
40591;SDS011;26301;42.832;23.918;2023-02-28T07:29:29;24.30;;;11.88;;
40591;SDS011;26301;42.832;23.918;2023-02-28T07:31:54;26.05;;;12.45;;
40591;SDS011;26301;42.832;23.918;2023-02-28T07:34:21;26.80;;;12.88;;
40591;SDS011;26301;42.832;23.918;2023-02-28T07:36:47;28.10;;;13.25;;
40591;SDS011;26301;42.832;23.918;2023-02-28T07:39:13;34.25;;;11.52;;
40591;SDS011;26301;42.832;23.918;2023-02-28T07:41:38;26.48;;;10.73;;
40591;SDS011;26301;42.832;23.918;2023-02-28T07:44:11;28.35;;;12.50;;
40591;SDS011;26301;42.832;23.918;2023-02-28T07:46:36;35.45;;;12.63;;
40591;SDS011;26301;42.832;23.918;2023-02-28T07:49:02;29.15;;;13.07;;
40591;SDS011;26301;42.832;23.918;2023-02-28T07:51:29;28.67;;;13.15;;
40591;SDS011;26301;42.832;23.918;2023-02-28T07:53:55;43.28;;;15.00;;
40591;SDS011;26301;42.832;23.918;2023-02-28T07:56:21;47.30;;;15.38;;
40591;SDS011;26301;42.832;23.918;2023-02-28T07:58:47;39.03;;;13.75;;
40591;SDS011;26301;42.832;23.918;2023-02-28T08:01:13;92.63;;;15.15;;
40591;SDS011;26301;42.832;23.918;2023-02-28T08:03:39;75.40;;;14.13;;
40591;SDS011;26301;42.832;23.918;2023-02-28T08:06:05;119.30;;;17.67;;
40591;SDS011;26301;42.832;23.918;2023-02-28T08:08:33;134.98;;;14.68;;
40591;SDS011;26301;42.832;23.918;2023-02-28T08:10:59;109.32;;;18.23;;
40591;SDS011;26301;42.832;23.918;2023-02-28T08:13:26;75.90;;;17.55;;
40591;SDS011;26301;42.832;23.918;2023-02-28T08:15:53;131.02;;;18.55;;
40591;SDS011;26301;42.832;23.918;2023-02-28T08:18:20;99.13;;;18.70;;
40591;SDS011;26301;42.832;23.918;2023-02-28T08:20:46;114.50;;;23.00;;
40591;SDS011;26301;42.832;23.918;2023-02-28T08:23:12;90.22;;;15.90;;
40591;SDS011;26301;42.832;23.918;2023-02-28T08:25:38;95.57;;;16.67;;
40591;SDS011;26301;42.832;23.918;2023-02-28T08:28:03;133.90;;;14.65;;
40591;SDS011;26301;42.832;23.918;2023-02-28T08:30:29;59.70;;;15.55;;
40591;SDS011;26301;42.832;23.918;2023-02-28T08:32:55;157.13;;;15.98;;
40591;SDS011;26301;42.832;23.918;2023-02-28T08:35:20;70.57;;;14.88;;
40591;SDS011;26301;42.832;23.918;2023-02-28T08:37:49;134.27;;;14.18;;
40591;SDS011;26301;42.832;23.918;2023-02-28T08:40:16;92.93;;;15.30;;
40591;SDS011;26301;42.832;23.918;2023-02-28T08:42:47;111.50;;;14.45;;
40591;SDS011;26301;42.832;23.918;2023-02-28T08:45:14;71.60;;;12.88;;
40591;SDS011;26301;42.832;23.918;2023-02-28T08:47:40;122.07;;;13.23;;
40591;SDS011;26301;42.832;23.918;2023-02-28T08:50:06;38.55;;;13.02;;
40591;SDS011;26301;42.832;23.918;2023-02-28T08:52:32;182.18;;;14.90;;
40591;SDS011;26301;42.832;23.918;2023-02-28T08:54:58;181.00;;;16.02;;
40591;SDS011;26301;42.832;23.918;2023-02-28T08:57:24;147.00;;;13.57;;
40591;SDS011;26301;42.832;23.918;2023-02-28T08:59:51;188.43;;;17.98;;
40591;SDS011;26301;42.832;23.918;2023-02-28T09:02:17;115.45;;;15.48;;
40591;SDS011;26301;42.832;23.918;2023-02-28T09:04:43;102.53;;;16.50;;
40591;SDS011;26301;42.832;23.918;2023-02-28T09:07:10;61.78;;;15.68;;
40591;SDS011;26301;42.832;23.918;2023-02-28T09:09:36;140.43;;;17.00;;
40591;SDS011;26301;42.832;23.918;2023-02-28T09:12:02;76.22;;;16.63;;
40591;SDS011;26301;42.832;23.918;2023-02-28T09:14:28;80.82;;;14.15;;
40591;SDS011;26301;42.832;23.918;2023-02-28T09:16:54;181.63;;;15.45;;
40591;SDS011;26301;42.832;23.918;2023-02-28T09:19:20;186.02;;;17.65;;
40591;SDS011;26301;42.832;23.918;2023-02-28T09:21:45;100.43;;;14.63;;
40591;SDS011;26301;42.832;23.918;2023-02-28T09:24:11;110.35;;;13.38;;
40591;SDS011;26301;42.832;23.918;2023-02-28T09:26:39;73.50;;;15.13;;
40591;SDS011;26301;42.832;23.918;2023-02-28T09:29:05;122.43;;;14.57;;
40591;SDS011;26301;42.832;23.918;2023-02-28T09:31:31;90.35;;;14.82;;
40591;SDS011;26301;42.832;23.918;2023-02-28T09:33:57;32.53;;;12.57;;
40591;SDS011;26301;42.832;23.918;2023-02-28T09:36:24;44.53;;;13.45;;
40591;SDS011;26301;42.832;23.918;2023-02-28T09:38:51;38.75;;;13.48;;
40591;SDS011;26301;42.832;23.918;2023-02-28T09:41:27;64.85;;;13.40;;
40591;SDS011;26301;42.832;23.918;2023-02-28T09:44:05;61.65;;;12.13;;
40591;SDS011;26301;42.832;23.918;2023-02-28T09:46:42;43.15;;;12.85;;
40591;SDS011;26301;42.832;23.918;2023-02-28T09:49:22;50.95;;;14.10;;
40591;SDS011;26301;42.832;23.918;2023-02-28T09:51:58;38.47;;;15.00;;
40591;SDS011;26301;42.832;23.918;2023-02-28T09:54:30;51.15;;;16.65;;
40591;SDS011;26301;42.832;23.918;2023-02-28T09:59:45;95.50;;;17.63;;
40591;SDS011;26301;42.832;23.918;2023-02-28T10:05:13;73.75;;;13.30;;
40591;SDS011;26301;42.832;23.918;2023-02-28T10:10:46;80.40;;;14.40;;
40591;SDS011;26301;42.832;23.918;2023-02-28T10:19:20;162.32;;;17.25;;
40591;SDS011;26301;42.832;23.918;2023-02-28T10:22:01;226.10;;;20.77;;
40591;SDS011;26301;42.832;23.918;2023-02-28T10:24:44;210.32;;;23.45;;
40591;SDS011;26301;42.832;23.918;2023-02-28T10:27:19;127.78;;;17.92;;
40591;SDS011;26301;42.832;23.918;2023-02-28T10:29:49;144.95;;;13.80;;
40591;SDS011;26301;42.832;23.918;2023-02-28T10:32:26;153.20;;;19.00;;
40591;SDS011;26301;42.832;23.918;2023-02-28T10:37:47;223.35;;;32.00;;
40591;SDS011;26301;42.832;23.918;2023-02-28T10:42:54;105.35;;;17.52;;
40591;SDS011;26301;42.832;23.918;2023-02-28T10:45:20;251.57;;;19.48;;
40591;SDS011;26301;42.832;23.918;2023-02-28T10:50:29;189.02;;;16.58;;
40591;SDS011;26301;42.832;23.918;2023-02-28T10:56:03;164.07;;;15.68;;
40591;SDS011;26301;42.832;23.918;2023-02-28T11:01:46;435.67;;;23.52;;
40591;SDS011;26301;42.832;23.918;2023-02-28T11:28:00;232.93;;;18.08;;
40591;SDS011;26301;42.832;23.918;2023-02-28T11:30:38;434.90;;;24.42;;
40591;SDS011;26301;42.832;23.918;2023-02-28T11:35:46;316.02;;;19.10;;
40591;SDS011;26301;42.832;23.918;2023-02-28T11:38:14;282.30;;;18.33;;
40591;SDS011;26301;42.832;23.918;2023-02-28T11:40:53;228.35;;;16.25;;
40591;SDS011;26301;42.832;23.918;2023-02-28T11:48:54;256.73;;;15.38;;
40591;SDS011;26301;42.832;23.918;2023-02-28T11:51:54;411.20;;;19.48;;
40591;SDS011;26301;42.832;23.918;2023-02-28T12:00:15;339.67;;;17.15;;
40591;SDS011;26301;42.832;23.918;2023-02-28T12:08:24;223.73;;;15.93;;
40591;SDS011;26301;42.832;23.918;2023-02-28T12:16:37;224.57;;;13.52;;
40591;SDS011;26301;42.832;23.918;2023-02-28T12:21:52;333.98;;;16.50;;
40591;SDS011;26301;42.832;23.918;2023-02-28T12:27:32;329.20;;;17.15;;
40591;SDS011;26301;42.832;23.918;2023-02-28T12:30:05;176.75;;;13.43;;
40591;SDS011;26301;42.832;23.918;2023-02-28T12:35:38;128.52;;;12.73;;
40591;SDS011;26301;42.832;23.918;2023-02-28T12:38:14;101.60;;;11.35;;
40591;SDS011;26301;42.832;23.918;2023-02-28T12:41:10;114.97;;;11.02;;
40591;SDS011;26301;42.832;23.918;2023-02-28T12:43:46;143.88;;;14.25;;
40591;SDS011;26301;42.832;23.918;2023-02-28T12:46:25;217.55;;;20.95;;
40591;SDS011;26301;42.832;23.918;2023-02-28T12:49:05;122.15;;;16.38;;
40591;SDS011;26301;42.832;23.918;2023-02-28T12:51:35;161.73;;;11.82;;
40591;SDS011;26301;42.832;23.918;2023-02-28T13:05:07;232.95;;;12.30;;
40591;SDS011;26301;42.832;23.918;2023-02-28T13:10:48;296.75;;;15.90;;
40591;SDS011;26301;42.832;23.918;2023-02-28T13:13:21;222.20;;;13.60;;
40591;SDS011;26301;42.832;23.918;2023-02-28T13:16:03;228.10;;;15.38;;
40591;SDS011;26301;42.832;23.918;2023-02-28T13:18:32;146.13;;;13.18;;
40591;SDS011;26301;42.832;23.918;2023-02-28T13:21:02;78.07;;;10.18;;
40591;SDS011;26301;42.832;23.918;2023-02-28T13:23:40;153.75;;;13.65;;
40591;SDS011;26301;42.832;23.918;2023-02-28T13:26:09;99.90;;;12.32;;
40591;SDS011;26301;42.832;23.918;2023-02-28T13:31:23;45.85;;;9.40;;
40591;SDS011;26301;42.832;23.918;2023-02-28T13:38:55;16.38;;;6.32;;
40591;SDS011;26301;42.832;23.918;2023-02-28T13:41:40;23.02;;;6.97;;
40591;SDS011;26301;42.832;23.918;2023-02-28T13:51:48;12.27;;;6.57;;
40591;SDS011;26301;42.832;23.918;2023-02-28T13:57:01;13.50;;;6.50;;
40591;SDS011;26301;42.832;23.918;2023-02-28T14:00:05;10.30;;;5.63;;
40591;SDS011;26301;42.832;23.918;2023-02-28T14:05:20;14.60;;;6.32;;
40591;SDS011;26301;42.832;23.918;2023-02-28T14:07:52;11.98;;;6.03;;
40591;SDS011;26301;42.832;23.918;2023-02-28T14:10:25;19.92;;;6.95;;
40591;SDS011;26301;42.832;23.918;2023-02-28T14:12:57;11.60;;;5.65;;
40591;SDS011;26301;42.832;23.918;2023-02-28T14:18:11;14.23;;;7.55;;
40591;SDS011;26301;42.832;23.918;2023-02-28T14:20:42;15.80;;;7.30;;
40591;SDS011;26301;42.832;23.918;2023-02-28T14:26:16;15.35;;;8.18;;
40591;SDS011;26301;42.832;23.918;2023-02-28T14:31:37;17.95;;;7.88;;
40591;SDS011;26301;42.832;23.918;2023-02-28T14:37:04;16.50;;;5.75;;
40591;SDS011;26301;42.832;23.918;2023-02-28T14:39:30;14.80;;;6.50;;
40591;SDS011;26301;42.832;23.918;2023-02-28T14:41:57;13.55;;;7.15;;
40591;SDS011;26301;42.832;23.918;2023-02-28T14:44:29;11.63;;;7.68;;
40591;SDS011;26301;42.832;23.918;2023-02-28T14:46:59;16.02;;;8.35;;
40591;SDS011;26301;42.832;23.918;2023-02-28T14:49:51;14.30;;;8.27;;
40591;SDS011;26301;42.832;23.918;2023-02-28T14:52:20;10.18;;;6.60;;
40591;SDS011;26301;42.832;23.918;2023-02-28T14:54:51;10.52;;;6.93;;
40591;SDS011;26301;42.832;23.918;2023-02-28T15:02:39;11.98;;;6.72;;
40591;SDS011;26301;42.832;23.918;2023-02-28T15:05:28;15.30;;;5.97;;
40591;SDS011;26301;42.832;23.918;2023-02-28T15:08:15;13.68;;;6.43;;
40591;SDS011;26301;42.832;23.918;2023-02-28T15:10:42;12.75;;;6.93;;
40591;SDS011;26301;42.832;23.918;2023-02-28T15:13:16;11.75;;;7.97;;
40591;SDS011;26301;42.832;23.918;2023-02-28T15:21:13;10.15;;;5.28;;
40591;SDS011;26301;42.832;23.918;2023-02-28T15:23:45;14.25;;;6.43;;
40591;SDS011;26301;42.832;23.918;2023-02-28T15:26:16;13.10;;;7.80;;
40591;SDS011;26301;42.832;23.918;2023-02-28T15:28:45;13.68;;;6.60;;
40591;SDS011;26301;42.832;23.918;2023-02-28T15:31:18;13.52;;;7.68;;
40591;SDS011;26301;42.832;23.918;2023-02-28T15:33:57;14.85;;;8.73;;
40591;SDS011;26301;42.832;23.918;2023-02-28T15:36:29;14.68;;;10.35;;
40591;SDS011;26301;42.832;23.918;2023-02-28T15:38:58;11.30;;;7.30;;
40591;SDS011;26301;42.832;23.918;2023-02-28T15:41:35;14.77;;;9.15;;
40591;SDS011;26301;42.832;23.918;2023-02-28T15:44:14;15.00;;;7.53;;
40591;SDS011;26301;42.832;23.918;2023-02-28T15:46:42;10.02;;;6.53;;
40591;SDS011;26301;42.832;23.918;2023-02-28T15:49:17;10.18;;;5.75;;
40591;SDS011;26301;42.832;23.918;2023-02-28T15:51:45;12.40;;;6.07;;
40591;SDS011;26301;42.832;23.918;2023-02-28T15:54:21;14.23;;;7.97;;
40591;SDS011;26301;42.832;23.918;2023-02-28T15:56:52;25.25;;;14.32;;
40591;SDS011;26301;42.832;23.918;2023-02-28T15:59:25;49.88;;;11.80;;
40591;SDS011;26301;42.832;23.918;2023-02-28T16:02:03;15.85;;;9.23;;
40591;SDS011;26301;42.832;23.918;2023-02-28T16:07:31;105.07;;;15.25;;
40591;SDS011;26301;42.832;23.918;2023-02-28T16:09:58;93.32;;;14.82;;
40591;SDS011;26301;42.832;23.918;2023-02-28T16:12:27;75.57;;;16.27;;
40591;SDS011;26301;42.832;23.918;2023-02-28T16:14:56;136.85;;;16.08;;
40591;SDS011;26301;42.832;23.918;2023-02-28T16:17:24;151.60;;;16.05;;
40591;SDS011;26301;42.832;23.918;2023-02-28T16:19:52;205.30;;;15.10;;
40591;SDS011;26301;42.832;23.918;2023-02-28T16:22:19;255.88;;;16.42;;
40591;SDS011;26301;42.832;23.918;2023-02-28T16:24:44;331.48;;;17.90;;
40591;SDS011;26301;42.832;23.918;2023-02-28T16:27:15;188.13;;;16.42;;
40591;SDS011;26301;42.832;23.918;2023-02-28T16:29:43;175.70;;;13.55;;
40591;SDS011;26301;42.832;23.918;2023-02-28T16:32:10;178.05;;;14.65;;
40591;SDS011;26301;42.832;23.918;2023-02-28T16:34:40;120.22;;;12.48;;
40591;SDS011;26301;42.832;23.918;2023-02-28T16:37:16;60.60;;;11.15;;
40591;SDS011;26301;42.832;23.918;2023-02-28T16:39:43;153.60;;;13.48;;
40591;SDS011;26301;42.832;23.918;2023-02-28T16:42:16;61.10;;;8.75;;
40591;SDS011;26301;42.832;23.918;2023-02-28T16:44:53;109.85;;;9.27;;
40591;SDS011;26301;42.832;23.918;2023-02-28T16:47:19;90.55;;;8.68;;
40591;SDS011;26301;42.832;23.918;2023-02-28T16:49:45;61.10;;;7.00;;
40591;SDS011;26301;42.832;23.918;2023-02-28T16:52:12;79.45;;;6.22;;
40591;SDS011;26301;42.832;23.918;2023-02-28T16:54:39;46.83;;;6.05;;
40591;SDS011;26301;42.832;23.918;2023-02-28T16:57:08;34.67;;;5.28;;
40591;SDS011;26301;42.832;23.918;2023-02-28T16:59:48;39.17;;;6.22;;
40591;SDS011;26301;42.832;23.918;2023-02-28T17:02:17;10.33;;;4.80;;
40591;SDS011;26301;42.832;23.918;2023-02-28T17:04:46;16.83;;;4.97;;
40591;SDS011;26301;42.832;23.918;2023-02-28T17:07:13;7.22;;;5.07;;
40591;SDS011;26301;42.832;23.918;2023-02-28T17:09:41;21.38;;;5.75;;
40591;SDS011;26301;42.832;23.918;2023-02-28T17:12:08;44.97;;;5.83;;
40591;SDS011;26301;42.832;23.918;2023-02-28T17:14:34;243.73;;;12.32;;
40591;SDS011;26301;42.832;23.918;2023-02-28T17:17:00;190.82;;;15.00;;
40591;SDS011;26301;42.832;23.918;2023-02-28T17:19:26;289.67;;;16.38;;
40591;SDS011;26301;42.832;23.918;2023-02-28T17:21:53;337.08;;;14.63;;
40591;SDS011;26301;42.832;23.918;2023-02-28T17:24:18;147.25;;;8.60;;
40591;SDS011;26301;42.832;23.918;2023-02-28T17:26:44;255.55;;;12.18;;
40591;SDS011;26301;42.832;23.918;2023-02-28T17:29:15;232.50;;;11.25;;
40591;SDS011;26301;42.832;23.918;2023-02-28T17:31:42;134.40;;;9.15;;